CheckWX is a tool to help pilots better visualize weather data.  It is not intended as a substitute for an official pre-flight weather briefing.

00:22:21 UTC

KRDM METAR
Roberts Field Airport
Redmond, Oregon, USA
Current

26 mins ago

KRDM 102356Z 36009G16KT 10SM CLR 30/01 A3011 RMK AO2 SLP174 T03000011 10306 20222 58010
Observed
Jul-10 @ 23:56 UTC
Wind
  • 360° at 9 KTS
  • Gusting to 16 KTS
Visibility
10 SM
Flight Rules
VFR
Cloud Levels
  • Clear skies
Temperature
30°C / 86°F
Dewpoint
C / 34°F
Humidity
15%
Altimeter
30.11" Hg
Pressure
1019.62 hPa
Previous

1 hour ago

KRDM 102256Z VRB05KT 10SM CLR 29/02 A3012 RMK AO2 SLP180 T02940022
Observed
Jul-10 @ 22:56 UTC
Wind
  • Variable at 5 KTS
Visibility
10 SM
Flight Rules
VFR
Cloud Levels
  • Clear skies
Temperature
29°C / 84°F
Dewpoint
C / 36°F
Humidity
18%
Altimeter
30.12" Hg
Pressure
1020.02 hPa
Previous

2 hours ago

KRDM 102156Z 30007G17KT 220V320 10SM CLR 29/03 A3013 RMK AO2 SLP183 T02890028
Observed
Jul-10 @ 21:56 UTC
Wind
  • 300° at 7 KTS
  • Gusting to 17 KTS
Visibility
10 SM
Flight Rules
VFR
Cloud Levels
  • Clear skies
Temperature
29°C / 84°F
Dewpoint
C / 37°F
Humidity
19%
Altimeter
30.13" Hg
Pressure
1020.32 hPa